Terminal Aerodrome Forecast
Issued by NWS

Home | Current Version | Previous Version | Text Only | Print | Product List | Glossary On
Versions: 1 2 3 4 5 6 7 8 9 10 11 12
319
FTUS44 KBMX 032329
TAFTOI
TAF
KTOI 032329Z 0400/0424 03006KT P6SM OVC080
     FM041100 09007KT P6SM -RA OVC025
     FM041300 08011KT 4SM -RA BR OVC007=

USA.gov is the U.S. government's official web portal to all federal, state and local government web resources and services.